Time;durP1;ratioP1;P1;durP2;ratioP2;P2;SDS_P1;SDS_P2;PMS_P1;PMS_P2;Temp;Humidity;BMP_temperature;BMP_pressure;BME280_temperature;BME280_humidity;BME280_pressure;Samples;Min_cycle;Max_cycle;Signal;HPM_P1;HPM_P2
2021/12/27 00:01:47;;;;;;;20.70;12.18;;;-2.40;99.90;;;;;;5006172;28;20053;-79
2021/12/27 00:04:14;;;;;;;16.60;10.82;;;-2.30;99.90;;;;;;5003653;28;20274;-79
2021/12/27 00:06:41;;;;;;;21.27;12.07;;;-2.40;99.90;;;;;;4990840;28;20076;-79
2021/12/27 00:09:07;;;;;;;18.13;12.25;;;-2.40;99.90;;;;;;5007475;28;20425;-78
2021/12/27 00:11:34;;;;;;;23.42;13.70;;;-2.30;99.90;;;;;;4994571;28;20478;-79
2021/12/27 00:14:00;;;;;;;20.45;13.27;;;-2.30;99.90;;;;;;4990118;28;20165;-79
2021/12/27 00:16:27;;;;;;;18.83;12.27;;;-2.30;99.90;;;;;;5002684;28;20524;-79
2021/12/27 00:18:53;;;;;;;19.17;12.65;;;-2.40;99.90;;;;;;4983350;28;20054;-79
2021/12/27 00:21:20;;;;;;;23.23;13.55;;;-2.40;99.90;;;;;;4980466;28;20052;-78
2021/12/27 00:23:46;;;;;;;23.27;14.98;;;-2.40;99.90;;;;;;4986339;28;20061;-79
2021/12/27 00:26:13;;;;;;;18.83;13.80;;;-2.50;99.90;;;;;;4980302;28;20042;-78
2021/12/27 00:28:39;;;;;;;18.45;11.82;;;-2.50;99.90;;;;;;4981610;28;20050;-79
2021/12/27 00:31:06;;;;;;;17.70;12.23;;;-2.40;99.90;;;;;;4988802;28;20054;-79
2021/12/27 00:33:33;;;;;;;24.65;14.55;;;-2.40;99.90;;;;;;4997691;28;20060;-79
2021/12/27 00:35:59;;;;;;;21.30;13.48;;;-2.50;99.90;;;;;;4994764;28;20058;-78
2021/12/27 00:38:26;;;;;;;19.08;13.50;;;-2.40;99.90;;;;;;4990849;28;20068;-79
2021/12/27 00:40:52;;;;;;;19.77;13.07;;;-2.50;99.90;;;;;;4995117;28;20098;-78
2021/12/27 00:43:19;;;;;;;20.60;14.60;;;-2.40;99.90;;;;;;4996496;28;20050;-78
2021/12/27 00:45:46;;;;;;;23.00;13.88;;;-2.50;99.90;;;;;;5011728;28;20096;-79
2021/12/27 00:48:15;;;;;;;22.73;13.98;;;-2.40;99.90;;;;;;4991328;28;20053;-79
2021/12/27 00:50:41;;;;;;;18.95;12.38;;;-2.40;99.90;;;;;;4993720;28;20100;-79
2021/12/27 00:53:08;;;;;;;23.10;12.32;;;-2.40;99.90;;;;;;4991420;28;20838;-78
2021/12/27 00:55:34;;;;;;;18.30;12.60;;;-2.30;99.90;;;;;;4979133;28;20513;-79
2021/12/27 00:58:01;;;;;;;19.25;13.70;;;-2.30;99.90;;;;;;4983766;28;20054;-79
2021/12/27 01:00:27;;;;;;;19.80;12.88;;;-2.30;99.90;;;;;;4985568;28;20053;-79
2021/12/27 01:02:54;;;;;;;20.70;13.43;;;-2.40;99.90;;;;;;4992067;28;20042;-79
2021/12/27 01:05:21;;;;;;;21.83;12.85;;;-2.40;99.90;;;;;;4986561;28;20066;-79
2021/12/27 01:07:47;;;;;;;22.17;13.05;;;-2.50;99.90;;;;;;5011074;28;20050;-79
2021/12/27 01:10:37;;;;;;;20.23;12.90;;;-2.50;99.90;;;;;;4987592;28;20046;-79
2021/12/27 01:13:17;;;;;;;22.35;13.50;;;-2.50;99.90;;;;;;4987764;28;20127;-80
2021/12/27 01:15:49;;;;;;;16.50;12.90;;;-2.50;99.90;;;;;;4993797;28;20101;-80
2021/12/27 01:18:16;;;;;;;20.85;13.93;;;-2.50;99.90;;;;;;4988175;28;20481;-80
2021/12/27 01:20:42;;;;;;;21.83;13.77;;;-2.50;99.90;;;;;;4984881;28;20081;-79
2021/12/27 01:23:09;;;;;;;20.02;13.15;;;-2.50;99.90;;;;;;5011647;28;20539;-79
2021/12/27 01:25:35;;;;;;;20.33;13.30;;;-2.50;99.90;;;;;;4988617;28;20056;-79
2021/12/27 01:28:02;;;;;;;22.00;13.50;;;-2.50;99.90;;;;;;4987894;28;20060;-78
2021/12/27 01:30:30;;;;;;;20.55;12.80;;;-2.50;99.90;;;;;;4993632;28;20133;-78
2021/12/27 01:33:00;;;;;;;24.38;15.60;;;-2.50;99.90;;;;;;4990033;28;20058;-79
2021/12/27 01:35:26;;;;;;;21.60;15.15;;;-2.50;99.90;;;;;;4995473;28;20054;-78
2021/12/27 01:37:53;;;;;;;18.98;14.55;;;-2.40;99.90;;;;;;4985826;28;20489;-79
2021/12/27 01:40:19;;;;;;;19.35;12.95;;;-2.40;99.90;;;;;;4987166;28;20081;-79
2021/12/27 01:42:46;;;;;;;21.80;15.10;;;-2.40;99.90;;;;;;4985676;28;20054;-78
2021/12/27 01:45:13;;;;;;;20.88;15.20;;;-2.40;99.90;;;;;;4990483;28;20050;-78
2021/12/27 01:47:39;;;;;;;21.83;14.20;;;-2.40;99.90;;;;;;4988576;28;20052;-78
2021/12/27 01:50:06;;;;;;;21.95;14.02;;;-2.40;99.90;;;;;;4989679;28;20053;-79
2021/12/27 01:52:32;;;;;;;24.25;14.10;;;-2.40;99.90;;;;;;5007568;28;20054;-78
2021/12/27 01:54:59;;;;;;;20.33;14.32;;;-2.40;99.90;;;;;;4985261;28;20087;-78
2021/12/27 01:57:26;;;;;;;20.02;13.80;;;-2.30;99.90;;;;;;4981617;28;20046;-79
2021/12/27 01:59:52;;;;;;;19.77;14.27;;;-2.30;99.90;;;;;;4996653;28;20057;-77
2021/12/27 02:02:19;;;;;;;22.98;15.57;;;-2.30;99.90;;;;;;4992451;28;20046;-79
2021/12/27 02:04:45;;;;;;;23.77;14.57;;;-2.30;99.90;;;;;;4994523;28;20057;-79
2021/12/27 02:07:12;;;;;;;22.80;15.07;;;-2.30;99.90;;;;;;5010534;28;20053;-78
2021/12/27 02:09:49;;;;;;;23.08;15.93;;;-2.30;99.90;;;;;;4996040;28;20053;-77
2021/12/27 02:12:16;;;;;;;22.42;14.90;;;-2.30;99.90;;;;;;4984135;28;20512;-77
2021/12/27 02:14:42;;;;;;;26.98;15.77;;;-2.20;99.90;;;;;;4995201;28;20137;-77
2021/12/27 02:17:09;;;;;;;29.17;16.67;;;-2.20;99.90;;;;;;4994583;28;20046;-78
2021/12/27 02:19:35;;;;;;;19.88;14.82;;;-2.20;99.90;;;;;;4990894;28;20049;-78
2021/12/27 02:22:02;;;;;;;23.38;15.35;;;-2.20;99.90;;;;;;4994312;28;20100;-78
2021/12/27 02:24:28;;;;;;;27.23;16.95;;;-2.10;99.90;;;;;;4990037;28;20037;-78
2021/12/27 02:26:55;;;;;;;21.30;15.18;;;-2.10;99.90;;;;;;5009544;28;20493;-77
2021/12/27 02:29:22;;;;;;;21.80;15.57;;;-2.10;99.90;;;;;;4984159;28;20050;-78
2021/12/27 02:31:51;;;;;;;26.65;16.42;;;-2.10;99.90;;;;;;4987822;28;20046;-78
2021/12/27 02:34:17;;;;;;;24.40;15.93;;;-2.10;99.90;;;;;;4981318;28;20058;-78
2021/12/27 02:36:44;;;;;;;21.15;15.10;;;-2.10;99.90;;;;;;4999568;28;20061;-78
2021/12/27 02:39:10;;;;;;;23.13;15.52;;;-2.00;99.90;;;;;;4991509;28;20054;-78
2021/12/27 02:41:37;;;;;;;24.50;16.13;;;-2.00;99.90;;;;;;4989627;28;20053;-78
2021/12/27 02:44:03;;;;;;;22.55;15.90;;;-1.90;99.90;;;;;;4990427;28;20068;-78
2021/12/27 02:46:30;;;;;;;24.95;14.50;;;-1.90;99.90;;;;;;4994805;28;20041;-79
2021/12/27 02:48:56;;;;;;;23.60;15.65;;;-1.90;99.90;;;;;;4989467;28;20060;-78
2021/12/27 02:51:23;;;;;;;24.65;14.55;;;-1.90;99.90;;;;;;4999471;28;20061;-79
2021/12/27 02:53:49;;;;;;;25.77;15.80;;;-1.90;99.90;;;;;;4982908;28;20051;-78
2021/12/27 02:56:17;;;;;;;26.63;16.67;;;-1.80;99.90;;;;;;4980603;28;20054;-79
2021/12/27 02:58:44;;;;;;;20.63;14.05;;;-1.90;99.90;;;;;;4994083;28;20057;-79
2021/12/27 03:01:11;;;;;;;27.08;14.68;;;-1.90;99.90;;;;;;4993634;28;20045;-79
2021/12/27 03:03:38;;;;;;;22.88;15.50;;;-1.80;99.90;;;;;;4983128;28;20496;-78
2021/12/27 03:06:04;;;;;;;21.63;15.75;;;-1.80;99.90;;;;;;4993442;28;20500;-77
2021/12/27 03:08:31;;;;;;;24.80;17.58;;;-1.80;99.90;;;;;;5006981;28;20046;-78
2021/12/27 03:10:57;;;;;;;26.23;16.40;;;-1.70;99.90;;;;;;4991169;28;20054;-78
2021/12/27 03:13:24;;;;;;;21.42;16.70;;;-1.70;99.90;;;;;;4983249;28;20515;-78
2021/12/27 03:15:50;;;;;;;21.92;16.70;;;-1.80;99.90;;;;;;4982955;28;20053;-78
2021/12/27 03:18:17;;;;;;;28.30;16.67;;;-1.70;99.90;;;;;;4987921;28;20077;-78
2021/12/27 03:20:43;;;;;;;21.10;14.00;;;-1.70;99.90;;;;;;4991817;28;20047;-78
2021/12/27 03:23:10;;;;;;;24.88;16.95;;;-1.60;99.90;;;;;;4989669;28;20069;-77
2021/12/27 03:25:36;;;;;;;30.90;17.33;;;-1.70;99.90;;;;;;4980704;28;20047;-78
2021/12/27 03:28:03;;;;;;;25.95;16.55;;;-1.70;99.90;;;;;;4985621;28;20088;-78
2021/12/27 03:30:30;;;;;;;25.70;17.30;;;-1.60;99.90;;;;;;4983379;28;20050;-78
2021/12/27 03:32:56;;;;;;;24.52;16.80;;;-1.60;99.90;;;;;;4987197;28;20057;-78
2021/12/27 03:35:27;;;;;;;29.33;17.65;;;-1.60;99.90;;;;;;4994056;28;20046;-78
2021/12/27 03:37:54;;;;;;;26.90;18.10;;;-1.60;99.90;;;;;;4992808;28;20050;-77
2021/12/27 03:40:20;;;;;;;25.88;17.13;;;-1.60;99.90;;;;;;4989858;28;20077;-78
2021/12/27 03:42:49;;;;;;;26.55;17.33;;;-1.60;99.90;;;;;;4989760;28;20053;-77
2021/12/27 03:45:16;;;;;;;25.55;18.63;;;-1.60;99.90;;;;;;5006025;28;20049;-78
2021/12/27 03:47:42;;;;;;;30.75;18.35;;;-1.60;99.90;;;;;;5000817;28;20057;-78
2021/12/27 03:50:09;;;;;;;27.00;19.27;;;-1.60;99.90;;;;;;4993153;28;20049;-77
2021/12/27 03:52:37;;;;;;;27.52;20.00;;;-1.50;99.90;;;;;;4989043;28;20060;-77
2021/12/27 03:55:03;;;;;;;29.02;18.85;;;-1.50;99.90;;;;;;4994220;28;20053;-77
2021/12/27 03:57:32;;;;;;;26.05;18.90;;;-1.50;99.90;;;;;;4980988;28;20061;-78
2021/12/27 04:00:15;;;;;;;23.50;17.77;;;-1.50;99.90;;;;;;4987766;28;20493;-78
2021/12/27 04:02:42;;;;;;;25.45;18.90;;;-1.50;99.90;;;;;;4985488;28;20046;-77
2021/12/27 04:05:09;;;;;;;27.50;17.90;;;-1.50;99.90;;;;;;5006749;28;20054;-78
2021/12/27 04:07:36;;;;;;;28.48;18.48;;;-1.50;99.90;;;;;;4990115;28;20112;-77
2021/12/27 04:10:03;;;;;;;27.15;16.38;;;-1.50;99.90;;;;;;4991511;28;20069;-77
2021/12/27 04:12:29;;;;;;;25.90;16.65;;;-1.50;99.90;;;;;;4982644;28;20052;-77
2021/12/27 04:14:56;;;;;;;27.48;17.50;;;-1.40;99.90;;;;;;5004484;28;20050;-78
2021/12/27 04:17:22;;;;;;;23.23;16.70;;;-1.40;99.90;;;;;;4999826;28;20116;-78
2021/12/27 04:19:49;;;;;;;26.10;17.92;;;-1.40;99.90;;;;;;4992860;28;20108;-78
2021/12/27 04:22:15;;;;;;;27.38;17.60;;;-1.40;99.90;;;;;;4986554;28;20050;-78
2021/12/27 04:24:42;;;;;;;31.48;18.23;;;-1.40;99.90;;;;;;4995435;28;20153;-77
2021/12/27 04:27:08;;;;;;;27.40;15.18;;;-1.40;99.90;;;;;;4986338;28;20057;-78
2021/12/27 04:29:35;;;;;;;23.70;16.58;;;-1.40;99.90;;;;;;4993453;28;20054;-78
2021/12/27 04:32:01;;;;;;;27.25;16.73;;;-1.40;99.90;;;;;;4979388;28;20406;-76
2021/12/27 04:34:28;;;;;;;26.33;17.08;;;-1.30;99.90;;;;;;4981886;28;20069;-78
2021/12/27 04:36:54;;;;;;;31.67;18.27;;;-1.30;99.90;;;;;;4991020;28;20065;-77
2021/12/27 04:39:21;;;;;;;22.65;16.65;;;-1.40;99.90;;;;;;4990209;28;20229;-78
2021/12/27 04:41:48;;;;;;;28.33;18.00;;;-1.30;99.90;;;;;;4993864;28;20057;-78
2021/12/27 04:44:15;;;;;;;36.50;20.73;;;-1.30;99.90;;;;;;4984657;28;20153;-78
2021/12/27 04:46:41;;;;;;;30.90;17.98;;;-1.30;99.90;;;;;;4986636;28;20061;-77
2021/12/27 04:49:08;;;;;;;29.55;19.77;;;-1.30;99.90;;;;;;4985709;28;20062;-78
2021/12/27 04:51:34;;;;;;;30.95;18.55;;;-1.20;99.90;;;;;;4980876;28;20045;-78
2021/12/27 04:54:01;;;;;;;24.80;16.65;;;-1.20;99.90;;;;;;4980492;28;20050;-77
2021/12/27 04:56:27;;;;;;;27.88;18.08;;;-1.20;99.90;;;;;;4992079;28;20501;-77
2021/12/27 04:58:54;;;;;;;24.02;17.95;;;-1.20;99.90;;;;;;4984742;28;20046;-78
2021/12/27 05:01:22;;;;;;;29.23;19.38;;;-1.20;99.90;;;;;;4981441;28;20504;-78
2021/12/27 05:03:48;;;;;;;29.27;18.65;;;-1.20;99.90;;;;;;4980629;28;20047;-78
2021/12/27 05:06:15;;;;;;;23.88;17.83;;;-1.20;99.90;;;;;;4987876;28;20049;-78
2021/12/27 05:08:41;;;;;;;27.58;19.23;;;-1.20;99.90;;;;;;4985856;28;20046;-78
2021/12/27 05:11:08;;;;;;;35.75;18.60;;;-1.20;99.90;;;;;;4993439;28;20050;-78
2021/12/27 05:13:34;;;;;;;32.72;19.45;;;-1.10;99.90;;;;;;4988369;28;20057;-79
2021/12/27 05:16:01;;;;;;;24.65;17.58;;;-1.10;99.90;;;;;;4983812;28;20050;-78
2021/12/27 05:18:27;;;;;;;29.80;19.02;;;-1.10;99.90;;;;;;4981700;28;20057;-79
2021/12/27 05:20:54;;;;;;;32.03;19.67;;;-1.10;99.90;;;;;;4989290;28;20058;-78
2021/12/27 05:23:21;;;;;;;35.30;19.45;;;-1.10;99.90;;;;;;4997971;28;20050;-77
2021/12/27 05:25:47;;;;;;;30.02;18.38;;;-1.10;99.90;;;;;;4985057;28;20089;-77
2021/12/27 05:28:14;;;;;;;30.65;18.30;;;-1.10;99.90;;;;;;4988179;28;20054;-78
2021/12/27 05:30:41;;;;;;;28.52;17.88;;;-1.00;99.90;;;;;;4989716;28;20058;-78
2021/12/27 05:33:07;;;;;;;31.35;18.70;;;-1.00;99.90;;;;;;4995932;28;20053;-77
2021/12/27 05:35:34;;;;;;;27.02;16.90;;;-1.00;99.90;;;;;;4984185;28;20069;-78
2021/12/27 05:38:00;;;;;;;30.13;20.98;;;-1.00;99.90;;;;;;4996458;28;20065;-78
2021/12/27 05:40:27;;;;;;;30.38;19.15;;;-1.10;99.90;;;;;;5005437;28;20065;-78
2021/12/27 05:42:54;;;;;;;31.13;20.02;;;-1.10;99.90;;;;;;4988793;28;20489;-77
2021/12/27 05:45:20;;;;;;;28.08;18.40;;;-1.10;99.90;;;;;;4985024;28;20080;-77
2021/12/27 05:47:47;;;;;;;27.10;17.35;;;-1.00;99.90;;;;;;4983560;28;20670;-78
2021/12/27 05:50:13;;;;;;;27.40;19.00;;;-1.00;99.90;;;;;;4988420;28;20041;-78
2021/12/27 05:52:40;;;;;;;29.23;19.35;;;-1.00;99.90;;;;;;4994860;28;20517;-78
2021/12/27 05:55:06;;;;;;;29.02;19.45;;;-1.00;99.90;;;;;;5003117;28;20444;-78
2021/12/27 05:57:33;;;;;;;24.95;19.20;;;-1.00;99.90;;;;;;4991659;28;20061;-78
2021/12/27 05:59:59;;;;;;;26.13;17.98;;;-1.00;99.90;;;;;;4986070;28;20050;-76
2021/12/27 06:02:26;;;;;;;29.52;20.60;;;-1.00;99.90;;;;;;4993420;28;20042;-77
2021/12/27 06:04:53;;;;;;;31.75;19.92;;;-1.00;99.90;;;;;;4984636;28;20398;-77
2021/12/27 06:07:19;;;;;;;29.88;19.38;;;-1.00;99.90;;;;;;4991425;28;20054;-78
2021/12/27 06:09:46;;;;;;;32.13;18.63;;;-1.00;99.90;;;;;;4984609;28;20050;-78
2021/12/27 06:12:12;;;;;;;26.02;18.60;;;-1.00;99.90;;;;;;5010096;28;20053;-78
2021/12/27 06:14:39;;;;;;;28.10;19.77;;;-1.00;99.90;;;;;;4987000;28;20049;-78
2021/12/27 06:17:05;;;;;;;24.88;16.98;;;-1.00;99.90;;;;;;4995206;28;20049;-78
2021/12/27 06:19:32;;;;;;;29.80;20.58;;;-0.90;99.90;;;;;;4984006;28;20054;-78
2021/12/27 06:21:58;;;;;;;30.70;18.63;;;-1.00;99.90;;;;;;4986078;28;20057;-77
2021/12/27 06:24:25;;;;;;;28.17;18.42;;;-1.00;99.90;;;;;;4994529;28;20057;-77
2021/12/27 06:26:51;;;;;;;34.42;19.98;;;-0.90;99.90;;;;;;4993179;28;20608;-77
2021/12/27 06:29:18;;;;;;;30.15;19.75;;;-0.90;99.90;;;;;;4983570;28;20397;-79
2021/12/27 06:31:45;;;;;;;31.63;19.92;;;-0.90;99.90;;;;;;4989070;28;20409;-78
2021/12/27 06:34:11;;;;;;;28.13;19.48;;;-0.90;99.90;;;;;;4992037;28;20050;-77
2021/12/27 06:36:38;;;;;;;25.88;19.55;;;-0.90;99.90;;;;;;4992325;28;20050;-78
2021/12/27 06:39:04;;;;;;;32.53;19.85;;;-0.90;99.90;;;;;;4992457;28;20046;-77
2021/12/27 06:41:31;;;;;;;30.63;18.67;;;-0.90;99.90;;;;;;5011699;28;20046;-77
2021/12/27 06:43:57;;;;;;;24.95;17.00;;;-0.90;99.90;;;;;;4992099;28;20069;-77
2021/12/27 06:46:24;;;;;;;26.75;18.48;;;-0.90;99.90;;;;;;4992593;28;20053;-77
2021/12/27 06:48:51;;;;;;;31.55;18.50;;;-0.90;99.90;;;;;;4992622;28;20054;-78
2021/12/27 06:51:17;;;;;;;30.63;18.52;;;-0.90;99.90;;;;;;4992241;28;20057;-77
2021/12/27 06:53:44;;;;;;;24.17;18.42;;;-0.90;99.90;;;;;;5007967;28;20050;-77
2021/12/27 06:56:10;;;;;;;29.65;19.45;;;-0.90;99.90;;;;;;5011370;28;20062;-78
2021/12/27 06:58:37;;;;;;;28.75;18.05;;;-0.90;99.90;;;;;;4992876;28;20057;-78
2021/12/27 07:01:03;;;;;;;30.27;18.45;;;-0.90;99.90;;;;;;4989406;28;20054;-78
2021/12/27 07:03:30;;;;;;;24.45;19.20;;;-0.90;99.90;;;;;;4993731;28;20056;-78
2021/12/27 07:05:56;;;;;;;30.35;19.75;;;-0.90;99.90;;;;;;5010666;28;20611;-77
2021/12/27 07:08:23;;;;;;;25.35;17.73;;;-0.90;99.90;;;;;;5006176;28;20045;-77
2021/12/27 07:10:50;;;;;;;32.75;19.73;;;-0.80;99.90;;;;;;4992223;28;20257;-78
2021/12/27 07:13:16;;;;;;;27.73;19.40;;;-0.90;99.90;;;;;;4991165;28;20082;-77
2021/12/27 07:15:44;;;;;;;27.92;18.30;;;-0.90;99.90;;;;;;4991857;28;20053;-78
2021/12/27 07:18:11;;;;;;;27.58;19.42;;;-0.90;99.90;;;;;;4993416;28;20046;-77
2021/12/27 07:20:37;;;;;;;29.95;17.73;;;-0.80;99.90;;;;;;5009541;28;20054;-78
2021/12/27 07:23:04;;;;;;;28.27;20.20;;;-0.90;99.90;;;;;;4991553;28;20045;-78
2021/12/27 07:25:30;;;;;;;27.63;19.55;;;-0.90;99.90;;;;;;4995357;28;20508;-77
2021/12/27 07:27:58;;;;;;;32.05;19.40;;;-0.80;99.90;;;;;;5009627;28;20041;-78
2021/12/27 07:30:25;;;;;;;30.70;19.10;;;-0.90;99.90;;;;;;5008722;28;20053;-77
2021/12/27 07:32:51;;;;;;;27.52;18.88;;;-0.90;99.90;;;;;;4990834;28;20054;-78
2021/12/27 07:35:18;;;;;;;26.25;18.70;;;-0.90;99.90;;;;;;5010875;28;20050;-78
2021/12/27 07:37:44;;;;;;;33.95;21.58;;;-0.80;99.90;;;;;;4989738;28;20050;-78
2021/12/27 07:40:11;;;;;;;32.15;19.17;;;-0.80;99.90;;;;;;4991847;28;20046;-78
2021/12/27 07:42:37;;;;;;;30.20;19.83;;;-0.80;99.90;;;;;;4991806;28;20081;-78
2021/12/27 07:45:04;;;;;;;32.03;20.27;;;-0.80;99.90;;;;;;5008750;28;20050;-78
2021/12/27 07:47:31;;;;;;;30.52;19.63;;;-0.80;99.90;;;;;;4991629;28;20124;-77
2021/12/27 07:49:57;;;;;;;36.35;19.35;;;-0.80;99.90;;;;;;4992224;28;20060;-78
2021/12/27 07:52:24;;;;;;;37.75;19.95;;;-0.80;99.90;;;;;;4990208;28;20052;-77
2021/12/27 07:54:50;;;;;;;27.92;19.70;;;-0.80;99.90;;;;;;4991666;28;20145;-78
2021/12/27 07:57:17;;;;;;;31.67;19.83;;;-0.80;99.90;;;;;;4991569;28;20485;-78
2021/12/27 07:59:47;;;;;;;32.45;21.73;;;-0.70;99.90;;;;;;4992632;28;20042;-78
2021/12/27 08:02:14;;;;;;;30.77;20.00;;;-0.70;99.90;;;;;;5009712;28;20056;-77
2021/12/27 08:04:40;;;;;;;33.45;21.00;;;-0.70;99.90;;;;;;4991520;28;20058;-79
2021/12/27 08:07:07;;;;;;;30.10;19.90;;;-0.60;99.90;;;;;;5009166;28;20046;-78
2021/12/27 08:09:33;;;;;;;30.15;20.92;;;-0.70;99.90;;;;;;4991494;28;20065;-79
2021/12/27 08:12:00;;;;;;;35.78;22.42;;;-0.60;99.90;;;;;;4990925;28;20049;-78
2021/12/27 08:14:26;;;;;;;35.22;21.23;;;-0.50;99.90;;;;;;5009111;28;20049;-78
2021/12/27 08:16:53;;;;;;;27.98;20.90;;;-0.60;99.90;;;;;;4991009;28;20053;-78
2021/12/27 08:19:19;;;;;;;43.72;22.70;;;-0.50;99.90;;;;;;4993031;28;20137;-77
2021/12/27 08:21:46;;;;;;;35.65;21.20;;;-0.60;99.90;;;;;;4992599;28;20057;-78
2021/12/27 08:24:12;;;;;;;40.35;23.05;;;-0.50;99.90;;;;;;5008223;28;20508;-78
2021/12/27 08:26:39;;;;;;;29.08;20.33;;;-0.60;99.90;;;;;;4991687;28;20068;-79
2021/12/27 08:29:05;;;;;;;33.08;21.60;;;-0.50;99.90;;;;;;4993797;28;20469;-78
2021/12/27 08:31:32;;;;;;;30.83;20.55;;;-0.50;99.90;;;;;;4990926;28;20405;-79
2021/12/27 08:33:59;;;;;;;31.50;21.50;;;-0.50;99.90;;;;;;4991401;28;20663;-78
2021/12/27 08:36:25;;;;;;;31.35;19.92;;;-0.50;99.90;;;;;;4994311;28;20486;-79
2021/12/27 08:38:52;;;;;;;36.28;22.23;;;-0.40;99.90;;;;;;4987828;28;20523;-78
2021/12/27 08:41:18;;;;;;;34.75;21.48;;;-0.50;99.90;;;;;;4990389;28;20124;-78
2021/12/27 08:43:45;;;;;;;31.65;20.25;;;-0.50;99.90;;;;;;4992183;28;20057;-79
2021/12/27 08:46:11;;;;;;;32.58;21.33;;;-0.40;99.90;;;;;;4989651;28;20493;-78
2021/12/27 08:48:38;;;;;;;35.72;22.17;;;-0.40;99.90;;;;;;4991466;28;20057;-78
2021/12/27 08:51:04;;;;;;;27.98;19.80;;;-0.40;99.90;;;;;;5006052;28;20053;-78
2021/12/27 08:53:31;;;;;;;35.30;22.40;;;-0.40;99.90;;;;;;4992512;28;20056;-78
2021/12/27 08:55:58;;;;;;;38.08;23.17;;;-0.40;99.90;;;;;;5000367;28;20045;-79
2021/12/27 08:58:24;;;;;;;31.83;20.55;;;-0.30;99.90;;;;;;5011249;28;20042;-78
2021/12/27 09:00:51;;;;;;;37.92;22.67;;;-0.30;99.90;;;;;;4983204;28;20058;-77
2021/12/27 09:03:17;;;;;;;30.70;20.60;;;-0.30;99.90;;;;;;4983559;28;20069;-79
2021/12/27 09:05:44;;;;;;;34.65;21.42;;;-0.30;99.90;;;;;;4985213;28;20061;-78
2021/12/27 09:08:11;;;;;;;40.70;22.58;;;-0.30;99.90;;;;;;4984722;28;20058;-78
2021/12/27 09:10:37;;;;;;;33.97;21.20;;;-0.20;99.90;;;;;;4992233;28;20058;-78
2021/12/27 09:13:04;;;;;;;36.72;22.30;;;-0.20;99.90;;;;;;4987294;28;20046;-78
2021/12/27 09:15:30;;;;;;;29.38;20.00;;;-0.20;99.90;;;;;;4992094;28;20056;-78
2021/12/27 09:17:57;;;;;;;40.10;21.15;;;-0.20;99.90;;;;;;5008695;28;20045;-78
2021/12/27 09:20:25;;;;;;;36.13;21.60;;;-0.20;99.90;;;;;;5011145;28;20053;-78
2021/12/27 09:22:51;;;;;;;37.67;21.10;;;-0.20;99.90;;;;;;4985837;28;20137;-79
2021/12/27 09:25:18;;;;;;;33.97;22.35;;;-0.20;99.90;;;;;;4992342;28;20069;-78
2021/12/27 09:27:44;;;;;;;35.65;22.25;;;-0.10;99.90;;;;;;5006793;28;20049;-77
2021/12/27 09:30:11;;;;;;;32.30;21.40;;;-0.10;99.90;;;;;;4983486;28;20054;-78
2021/12/27 09:32:37;;;;;;;35.13;21.35;;;-0.10;99.90;;;;;;4991284;28;20069;-77
2021/12/27 09:35:04;;;;;;;44.38;22.50;;;-0.10;99.90;;;;;;5000549;28;20085;-78
2021/12/27 09:37:30;;;;;;;27.88;21.00;;;0.00;99.90;;;;;;5007962;28;20062;-78
2021/12/27 09:39:57;;;;;;;39.17;24.23;;;0.00;99.90;;;;;;5003789;28;20062;-78
2021/12/27 09:42:23;;;;;;;29.05;21.23;;;0.00;99.90;;;;;;5006455;28;20061;-78
2021/12/27 09:44:50;;;;;;;36.17;21.73;;;0.10;99.90;;;;;;4995101;28;20057;-78
2021/12/27 09:47:17;;;;;;;32.33;21.25;;;0.10;99.90;;;;;;4994925;28;20046;-79
2021/12/27 09:49:43;;;;;;;35.97;23.60;;;0.10;99.90;;;;;;4985347;28;20512;-78
2021/12/27 09:52:10;;;;;;;37.53;23.27;;;0.10;99.90;;;;;;5006306;28;20054;-78
2021/12/27 09:54:36;;;;;;;40.20;22.70;;;0.20;99.90;;;;;;4983231;28;20504;-78
2021/12/27 09:57:03;;;;;;;31.67;21.17;;;0.10;99.90;;;;;;4987179;28;20050;-78
2021/12/27 09:59:29;;;;;;;33.95;22.23;;;0.20;99.90;;;;;;5002152;28;20046;-78
2021/12/27 10:01:56;;;;;;;36.33;23.35;;;0.20;99.90;;;;;;4996576;28;20057;-78
2021/12/27 10:04:22;;;;;;;39.38;24.38;;;0.20;99.90;;;;;;4987073;28;20050;-87
2021/12/27 10:06:49;;;;;;;37.55;23.75;;;0.20;99.90;;;;;;4991375;28;20061;-77
2021/12/27 10:09:15;;;;;;;38.05;25.08;;;0.20;99.90;;;;;;4988351;28;20080;-78
2021/12/27 10:11:42;;;;;;;41.47;25.15;;;0.20;99.90;;;;;;4990359;28;20050;-77
2021/12/27 10:14:09;;;;;;;45.45;26.13;;;0.20;99.90;;;;;;4990523;28;20057;-77
2021/12/27 10:16:35;;;;;;;36.15;24.20;;;0.20;99.90;;;;;;5006332;28;20575;-77
2021/12/27 10:19:02;;;;;;;41.95;25.15;;;0.30;99.90;;;;;;4986199;28;20046;-77
2021/12/27 10:21:28;;;;;;;41.45;27.17;;;0.30;99.90;;;;;;5004369;28;20053;-77
2021/12/27 10:23:55;;;;;;;40.13;25.98;;;0.40;99.90;;;;;;5011582;28;20404;-78
2021/12/27 10:26:22;;;;;;;40.20;24.30;;;0.30;99.90;;;;;;4993249;28;20096;-77
2021/12/27 10:28:49;;;;;;;38.20;23.98;;;0.30;99.90;;;;;;4984080;28;20143;-76
2021/12/27 10:31:16;;;;;;;39.72;24.13;;;0.30;99.90;;;;;;4984954;28;20054;-77
2021/12/27 10:33:42;;;;;;;43.42;26.70;;;0.40;99.90;;;;;;4990467;28;20053;-77
2021/12/27 10:36:09;;;;;;;42.78;25.58;;;0.40;99.90;;;;;;4991327;28;20159;-76
2021/12/27 10:38:36;;;;;;;48.08;25.45;;;0.40;99.90;;;;;;4987075;28;20100;-76
2021/12/27 10:41:03;;;;;;;41.78;24.48;;;0.40;99.90;;;;;;4989300;28;20482;-77
2021/12/27 10:43:29;;;;;;;37.45;24.08;;;0.40;99.90;;;;;;5000254;28;20064;-76
2021/12/27 10:45:56;;;;;;;53.83;26.35;;;0.50;99.90;;;;;;5005581;28;20421;-77
2021/12/27 10:48:23;;;;;;;43.70;25.92;;;0.50;99.90;;;;;;4998009;28;20477;-77
2021/12/27 10:50:49;;;;;;;36.88;24.02;;;0.50;99.90;;;;;;5000122;28;20417;-76
2021/12/27 10:53:16;;;;;;;50.10;24.15;;;0.50;99.90;;;;;;4994372;28;20418;-77
2021/12/27 10:55:43;;;;;;;49.72;24.15;;;0.60;99.90;;;;;;4990159;28;20065;-76
2021/12/27 10:58:09;;;;;;;43.83;26.40;;;0.60;99.90;;;;;;5006837;28;20049;-76
2021/12/27 11:00:36;;;;;;;45.15;25.40;;;0.60;99.90;;;;;;4989611;28;20069;-76
2021/12/27 11:03:03;;;;;;;47.63;26.58;;;0.60;99.90;;;;;;5001926;28;20042;-77
2021/12/27 11:05:29;;;;;;;43.13;25.73;;;0.60;99.90;;;;;;5007559;28;20057;-76
2021/12/27 11:07:59;;;;;;;47.80;25.73;;;0.70;99.90;;;;;;4990473;28;20057;-76
2021/12/27 11:10:25;;;;;;;44.45;26.15;;;0.70;99.90;;;;;;5002817;28;20505;-77
2021/12/27 11:12:52;;;;;;;48.83;27.00;;;0.70;99.90;;;;;;5002000;28;20073;-76
2021/12/27 11:15:18;;;;;;;50.08;26.73;;;0.80;99.90;;;;;;5006099;28;20065;-76
2021/12/27 11:17:45;;;;;;;52.28;27.77;;;0.80;99.90;;;;;;5005422;28;20489;-76
2021/12/27 11:20:11;;;;;;;45.08;26.33;;;0.90;99.90;;;;;;5005487;28;20049;-76
2021/12/27 11:22:38;;;;;;;48.25;28.50;;;0.90;99.90;;;;;;4988082;28;20076;-76
2021/12/27 11:25:05;;;;;;;51.30;25.55;;;0.90;99.90;;;;;;4995234;28;20049;-76
2021/12/27 11:27:32;;;;;;;46.30;24.05;;;0.90;99.90;;;;;;4985697;28;20120;-77
2021/12/27 11:29:58;;;;;;;57.92;30.08;;;0.90;99.90;;;;;;5007045;28;20061;-76
2021/12/27 11:32:25;;;;;;;48.53;27.73;;;0.90;99.90;;;;;;4997104;28;20054;-77
2021/12/27 11:34:51;;;;;;;56.80;29.95;;;0.90;99.90;;;;;;5005903;28;20053;-76
2021/12/27 11:37:18;;;;;;;49.45;27.90;;;0.90;99.90;;;;;;4990247;28;20072;-77
2021/12/27 11:39:44;;;;;;;58.25;30.33;;;0.90;99.90;;;;;;4978827;28;20058;-77
2021/12/27 11:42:11;;;;;;;50.35;28.80;;;0.90;99.90;;;;;;4984837;28;20053;-77
2021/12/27 11:44:37;;;;;;;61.22;30.38;;;0.90;99.90;;;;;;5003016;28;20058;-76
2021/12/27 11:47:04;;;;;;;64.03;30.98;;;0.90;99.90;;;;;;5006315;28;20119;-78
2021/12/27 11:49:31;;;;;;;64.65;30.42;;;1.00;99.90;;;;;;4992608;28;20057;-76
2021/12/27 11:51:57;;;;;;;61.63;33.53;;;1.00;99.90;;;;;;5009629;28;20061;-77
2021/12/27 11:54:24;;;;;;;70.88;32.20;;;0.90;99.90;;;;;;4990736;28;20042;-77
2021/12/27 11:56:50;;;;;;;72.85;33.22;;;1.00;99.90;;;;;;5010714;28;20053;-76
2021/12/27 11:59:17;;;;;;;57.65;30.92;;;1.00;99.90;;;;;;5011638;28;20504;-76
2021/12/27 12:01:43;;;;;;;69.07;33.10;;;1.00;99.90;;;;;;4991349;28;20061;-77
2021/12/27 12:04:10;;;;;;;65.00;33.25;;;1.00;99.90;;;;;;5009368;28;20121;-77
2021/12/27 12:06:36;;;;;;;70.53;33.10;;;1.00;99.90;;;;;;4990980;28;20057;-77
2021/12/27 12:09:03;;;;;;;72.55;34.38;;;0.90;99.90;;;;;;4994000;28;20080;-77
2021/12/27 12:11:31;;;;;;;79.13;34.80;;;0.90;99.90;;;;;;5001563;28;20060;-77
2021/12/27 12:13:59;;;;;;;61.97;32.95;;;1.00;99.90;;;;;;5009974;28;20100;-77
2021/12/27 12:16:26;;;;;;;69.57;33.00;;;1.00;99.90;;;;;;4990830;28;20599;-77
2021/12/27 12:18:53;;;;;;;85.55;35.67;;;1.00;99.90;;;;;;5010194;28;20056;-77
2021/12/27 12:21:19;;;;;;;68.65;32.78;;;1.00;99.90;;;;;;5009022;28;20065;-77
2021/12/27 12:23:46;;;;;;;64.00;33.70;;;1.00;99.90;;;;;;4991579;28;20453;-77
2021/12/27 12:26:14;;;;;;;78.10;32.55;;;1.00;99.90;;;;;;5010583;28;20054;-77